LHPR

Details ICAO LHPR (QGY)
Name GYOR PER
Region Hungary
Timezone Europe/Budapest (UTC+2.0)
Plans Departing 51
Arriving 41
Stats Elevation 424 ft / 129 m (AMSL)
Location 47.626859° 17.812413°
Runways 2
Magnetic Variation 4.533° E
Sunrise 2018-05-27 03:00:22 UTC / 2018-05-27 05:00:22 Local
Sunset 2018-05-27 18:34:18 UTC / 2018-05-27 20:34:18 Local
Advertisement - Login to hide

Runways

ID Width Length Bearing (true) Bearing (mag) Surface Threshold Offset Overrun Length
12 98 ft / 30 m 4,748 ft / 1,447 m 119.53° 115.00° Asphalt 0 ft / 0 m 0 ft / 0 m
12L 140 ft / 43 m 3,724 ft / 1,135 m 119.30° 114.77° Dirt 0 ft / 0 m 0 ft / 0 m
30 98 ft / 30 m 4,748 ft / 1,447 m 299.54° 295.01° Asphalt 0 ft / 0 m 0 ft / 0 m
30R 140 ft / 43 m 3,724 ft / 1,135 m 299.31° 294.78° Dirt 0 ft / 0 m 0 ft / 0 m

Map

Weather


0- 5 10 15 20 25 30 35+ Temperature / ° C

Clouds and Precipitation
Forecast for 2018-05-27 12:00 UTC. Updated 3 hours ago

Ground ~20,000 ft ~40,000 ft Winds

METAR

LHPR 271345Z VRB04KT CAVOK 27/16 Q1019 RMK BLU

TAF

Not found

Frequencies

Tower 125.50 MHz BUDAPEST INFO
Warning: Do not use this data for real-world aviation or navigation. No guarantee of current accuracy is given.